sensor_id;sensor_type;location;lat;lon;timestamp;temperature;humidity
5705;DHT22;2877;48.238;11.160;2023-02-07T00:01:00;-4.00;99.90
5705;DHT22;2877;48.238;11.160;2023-02-07T00:03:25;-4.00;99.90
5705;DHT22;2877;48.238;11.160;2023-02-07T00:05:51;-4.00;99.90
5705;DHT22;2877;48.238;11.160;2023-02-07T00:08:16;-4.00;99.90
5705;DHT22;2877;48.238;11.160;2023-02-07T00:10:42;-4.10;99.90
5705;DHT22;2877;48.238;11.160;2023-02-07T00:13:07;-4.10;99.90
5705;DHT22;2877;48.238;11.160;2023-02-07T00:15:33;-4.10;99.90
5705;DHT22;2877;48.238;11.160;2023-02-07T00:17:58;-4.20;99.90
5705;DHT22;2877;48.238;11.160;2023-02-07T00:20:24;-4.20;99.90
5705;DHT22;2877;48.238;11.160;2023-02-07T00:22:50;-4.20;99.90
5705;DHT22;2877;48.238;11.160;2023-02-07T00:25:16;-4.10;99.90
5705;DHT22;2877;48.238;11.160;2023-02-07T00:27:41;-4.10;99.90
5705;DHT22;2877;48.238;11.160;2023-02-07T00:30:07;-4.10;99.90
5705;DHT22;2877;48.238;11.160;2023-02-07T00:32:33;-4.10;99.90
5705;DHT22;2877;48.238;11.160;2023-02-07T00:35:02;-4.20;99.90
5705;DHT22;2877;48.238;11.160;2023-02-07T00:37:27;-4.20;99.90
5705;DHT22;2877;48.238;11.160;2023-02-07T00:39:53;-4.20;99.90
5705;DHT22;2877;48.238;11.160;2023-02-07T00:42:19;-4.20;99.90
5705;DHT22;2877;48.238;11.160;2023-02-07T00:44:44;-4.20;99.90
5705;DHT22;2877;48.238;11.160;2023-02-07T00:47:10;-4.20;99.90
5705;DHT22;2877;48.238;11.160;2023-02-07T00:49:35;-4.20;99.90
5705;DHT22;2877;48.238;11.160;2023-02-07T00:52:01;-4.20;99.90
5705;DHT22;2877;48.238;11.160;2023-02-07T00:54:26;-4.30;99.90
5705;DHT22;2877;48.238;11.160;2023-02-07T00:56:52;-4.20;99.90
5705;DHT22;2877;48.238;11.160;2023-02-07T00:59:17;-4.30;99.90
5705;DHT22;2877;48.238;11.160;2023-02-07T01:01:43;-4.20;99.90
5705;DHT22;2877;48.238;11.160;2023-02-07T01:04:08;-4.30;99.90
5705;DHT22;2877;48.238;11.160;2023-02-07T01:06:34;-4.30;99.90
5705;DHT22;2877;48.238;11.160;2023-02-07T01:09:02;-4.30;99.90
5705;DHT22;2877;48.238;11.160;2023-02-07T01:11:29;-4.40;99.90
5705;DHT22;2877;48.238;11.160;2023-02-07T01:13:56;-4.40;99.90
5705;DHT22;2877;48.238;11.160;2023-02-07T01:16:31;-4.40;99.90
5705;DHT22;2877;48.238;11.160;2023-02-07T01:18:59;-4.40;99.90
5705;DHT22;2877;48.238;11.160;2023-02-07T01:21:25;-4.50;99.90
5705;DHT22;2877;48.238;11.160;2023-02-07T01:23:52;-4.40;99.90
5705;DHT22;2877;48.238;11.160;2023-02-07T01:26:21;-4.40;99.90
5705;DHT22;2877;48.238;11.160;2023-02-07T01:28:47;-4.40;99.90
5705;DHT22;2877;48.238;11.160;2023-02-07T01:31:13;-4.50;99.90
5705;DHT22;2877;48.238;11.160;2023-02-07T01:33:39;-4.50;99.90
5705;DHT22;2877;48.238;11.160;2023-02-07T01:36:12;-4.40;99.90
5705;DHT22;2877;48.238;11.160;2023-02-07T01:38:39;-4.50;99.90
5705;DHT22;2877;48.238;11.160;2023-02-07T01:41:05;-4.50;99.90
5705;DHT22;2877;48.238;11.160;2023-02-07T01:43:31;-4.50;99.90
5705;DHT22;2877;48.238;11.160;2023-02-07T01:45:56;-4.50;99.90
5705;DHT22;2877;48.238;11.160;2023-02-07T01:48:34;-4.60;99.90
5705;DHT22;2877;48.238;11.160;2023-02-07T01:51:05;-4.60;99.90
5705;DHT22;2877;48.238;11.160;2023-02-07T01:53:33;-4.70;99.90
5705;DHT22;2877;48.238;11.160;2023-02-07T01:56:01;-4.60;99.90
5705;DHT22;2877;48.238;11.160;2023-02-07T01:58:29;-4.70;99.90
5705;DHT22;2877;48.238;11.160;2023-02-07T02:00:56;-4.70;99.90
5705;DHT22;2877;48.238;11.160;2023-02-07T02:03:23;-4.80;99.90
5705;DHT22;2877;48.238;11.160;2023-02-07T02:05:50;-4.80;99.90
5705;DHT22;2877;48.238;11.160;2023-02-07T02:08:19;-4.80;99.90
5705;DHT22;2877;48.238;11.160;2023-02-07T02:10:53;-4.70;99.90
5705;DHT22;2877;48.238;11.160;2023-02-07T02:16:19;-4.80;99.90
5705;DHT22;2877;48.238;11.160;2023-02-07T02:27:22;-4.80;99.90
5705;DHT22;2877;48.238;11.160;2023-02-07T02:36:07;-4.90;99.90
5705;DHT22;2877;48.238;11.160;2023-02-07T02:41:22;-4.90;99.90
5705;DHT22;2877;48.238;11.160;2023-02-07T02:44:02;-5.00;99.90
5705;DHT22;2877;48.238;11.160;2023-02-07T02:46:39;-5.00;99.90
5705;DHT22;2877;48.238;11.160;2023-02-07T02:49:09;-5.10;99.90
5705;DHT22;2877;48.238;11.160;2023-02-07T02:51:35;-5.10;99.90
5705;DHT22;2877;48.238;11.160;2023-02-07T02:54:01;-5.10;99.90
5705;DHT22;2877;48.238;11.160;2023-02-07T03:07:30;-5.00;99.90
5705;DHT22;2877;48.238;11.160;2023-02-07T03:12:49;-5.10;99.90
5705;DHT22;2877;48.238;11.160;2023-02-07T03:15:29;-5.10;99.90
5705;DHT22;2877;48.238;11.160;2023-02-07T03:18:04;-5.20;99.90
5705;DHT22;2877;48.238;11.160;2023-02-07T03:20:42;-5.20;99.90
5705;DHT22;2877;48.238;11.160;2023-02-07T03:23:10;-5.20;99.90
5705;DHT22;2877;48.238;11.160;2023-02-07T03:25:40;-5.20;99.90
5705;DHT22;2877;48.238;11.160;2023-02-07T03:28:08;-5.30;99.90
5705;DHT22;2877;48.238;11.160;2023-02-07T03:30:36;-5.20;99.90
5705;DHT22;2877;48.238;11.160;2023-02-07T03:33:05;-5.20;99.90
5705;DHT22;2877;48.238;11.160;2023-02-07T03:38:14;-5.20;99.90
5705;DHT22;2877;48.238;11.160;2023-02-07T03:40:45;-5.30;99.90
5705;DHT22;2877;48.238;11.160;2023-02-07T03:43:19;-5.30;99.90
5705;DHT22;2877;48.238;11.160;2023-02-07T03:45:46;-5.40;99.90
5705;DHT22;2877;48.238;11.160;2023-02-07T03:48:12;-5.40;99.90
5705;DHT22;2877;48.238;11.160;2023-02-07T03:50:37;-5.40;99.90
5705;DHT22;2877;48.238;11.160;2023-02-07T03:53:03;-5.40;99.90
5705;DHT22;2877;48.238;11.160;2023-02-07T03:55:30;-5.50;99.90
5705;DHT22;2877;48.238;11.160;2023-02-07T03:57:56;-5.60;99.90
5705;DHT22;2877;48.238;11.160;2023-02-07T04:00:22;-5.60;99.90
5705;DHT22;2877;48.238;11.160;2023-02-07T04:02:47;-5.60;99.90
5705;DHT22;2877;48.238;11.160;2023-02-07T04:05:13;-5.70;99.90
5705;DHT22;2877;48.238;11.160;2023-02-07T04:07:38;-5.70;99.90
5705;DHT22;2877;48.238;11.160;2023-02-07T04:10:05;-5.80;99.90
5705;DHT22;2877;48.238;11.160;2023-02-07T04:12:30;-5.70;99.90
5705;DHT22;2877;48.238;11.160;2023-02-07T04:15:00;-5.70;99.90
5705;DHT22;2877;48.238;11.160;2023-02-07T04:17:25;-5.60;99.90
5705;DHT22;2877;48.238;11.160;2023-02-07T04:19:51;-5.60;99.90
5705;DHT22;2877;48.238;11.160;2023-02-07T04:22:16;-5.60;99.90
5705;DHT22;2877;48.238;11.160;2023-02-07T04:24:42;-5.60;99.90
5705;DHT22;2877;48.238;11.160;2023-02-07T04:27:07;-5.60;99.90
5705;DHT22;2877;48.238;11.160;2023-02-07T04:29:33;-5.60;99.90
5705;DHT22;2877;48.238;11.160;2023-02-07T04:31:58;-5.60;99.90
5705;DHT22;2877;48.238;11.160;2023-02-07T04:34:24;-5.60;99.90
5705;DHT22;2877;48.238;11.160;2023-02-07T04:36:50;-5.60;99.90
5705;DHT22;2877;48.238;11.160;2023-02-07T04:39:15;-5.60;99.90
5705;DHT22;2877;48.238;11.160;2023-02-07T04:41:41;-5.70;99.90
5705;DHT22;2877;48.238;11.160;2023-02-07T04:44:06;-5.70;99.90
5705;DHT22;2877;48.238;11.160;2023-02-07T04:46:32;-5.70;99.90
5705;DHT22;2877;48.238;11.160;2023-02-07T04:48:58;-5.80;99.90
5705;DHT22;2877;48.238;11.160;2023-02-07T04:51:24;-5.80;99.90
5705;DHT22;2877;48.238;11.160;2023-02-07T04:53:50;-5.80;99.90
5705;DHT22;2877;48.238;11.160;2023-02-07T04:56:16;-5.80;99.90
5705;DHT22;2877;48.238;11.160;2023-02-07T04:58:41;-5.80;99.90
5705;DHT22;2877;48.238;11.160;2023-02-07T05:01:07;-5.80;99.90
5705;DHT22;2877;48.238;11.160;2023-02-07T05:03:32;-5.80;99.90
5705;DHT22;2877;48.238;11.160;2023-02-07T05:05:58;-5.80;99.90
5705;DHT22;2877;48.238;11.160;2023-02-07T05:08:23;-5.80;99.90
5705;DHT22;2877;48.238;11.160;2023-02-07T05:10:53;-5.90;99.90
5705;DHT22;2877;48.238;11.160;2023-02-07T05:13:19;-5.90;99.90
5705;DHT22;2877;48.238;11.160;2023-02-07T05:15:45;-6.00;99.90
5705;DHT22;2877;48.238;11.160;2023-02-07T05:18:10;-6.00;99.90
5705;DHT22;2877;48.238;11.160;2023-02-07T05:20:36;-6.00;99.90
5705;DHT22;2877;48.238;11.160;2023-02-07T05:23:01;-6.10;99.90
5705;DHT22;2877;48.238;11.160;2023-02-07T05:25:27;-6.10;99.90
5705;DHT22;2877;48.238;11.160;2023-02-07T05:27:52;-6.10;99.90
5705;DHT22;2877;48.238;11.160;2023-02-07T05:30:18;-6.10;99.90
5705;DHT22;2877;48.238;11.160;2023-02-07T05:32:44;-6.10;99.90
5705;DHT22;2877;48.238;11.160;2023-02-07T05:35:35;-6.10;99.90
5705;DHT22;2877;48.238;11.160;2023-02-07T05:38:01;-6.10;99.90
5705;DHT22;2877;48.238;11.160;2023-02-07T05:40:29;-6.10;99.90
5705;DHT22;2877;48.238;11.160;2023-02-07T05:42:55;-6.10;99.90
5705;DHT22;2877;48.238;11.160;2023-02-07T05:45:21;-6.00;99.90
5705;DHT22;2877;48.238;11.160;2023-02-07T05:47:46;-6.10;99.90
5705;DHT22;2877;48.238;11.160;2023-02-07T05:50:12;-6.00;99.90
5705;DHT22;2877;48.238;11.160;2023-02-07T05:52:38;-6.00;99.90
5705;DHT22;2877;48.238;11.160;2023-02-07T05:55:03;-6.00;99.90
5705;DHT22;2877;48.238;11.160;2023-02-07T05:57:29;-6.10;99.90
5705;DHT22;2877;48.238;11.160;2023-02-07T05:59:55;-6.10;99.90
5705;DHT22;2877;48.238;11.160;2023-02-07T06:02:21;-6.10;99.90
5705;DHT22;2877;48.238;11.160;2023-02-07T06:04:46;-6.10;99.90
5705;DHT22;2877;48.238;11.160;2023-02-07T06:07:12;-6.10;99.90
5705;DHT22;2877;48.238;11.160;2023-02-07T06:09:38;-6.10;99.90
5705;DHT22;2877;48.238;11.160;2023-02-07T06:12:03;-6.10;99.90
5705;DHT22;2877;48.238;11.160;2023-02-07T06:14:29;-6.20;99.90
5705;DHT22;2877;48.238;11.160;2023-02-07T06:16:54;-6.10;99.90
5705;DHT22;2877;48.238;11.160;2023-02-07T06:19:20;-6.10;99.90
5705;DHT22;2877;48.238;11.160;2023-02-07T06:21:45;-6.10;99.90
5705;DHT22;2877;48.238;11.160;2023-02-07T06:24:11;-6.10;99.90
5705;DHT22;2877;48.238;11.160;2023-02-07T06:26:36;-6.20;99.90
5705;DHT22;2877;48.238;11.160;2023-02-07T06:29:02;-6.30;99.90
5705;DHT22;2877;48.238;11.160;2023-02-07T06:31:28;-6.30;99.90
5705;DHT22;2877;48.238;11.160;2023-02-07T06:33:53;-6.20;99.90
5705;DHT22;2877;48.238;11.160;2023-02-07T06:36:19;-6.20;99.90
5705;DHT22;2877;48.238;11.160;2023-02-07T06:38:44;-6.10;99.90
5705;DHT22;2877;48.238;11.160;2023-02-07T06:41:10;-6.10;99.90
5705;DHT22;2877;48.238;11.160;2023-02-07T06:43:39;-6.10;99.90
5705;DHT22;2877;48.238;11.160;2023-02-07T06:46:05;-6.10;99.90
5705;DHT22;2877;48.238;11.160;2023-02-07T06:48:31;-6.10;99.90
5705;DHT22;2877;48.238;11.160;2023-02-07T06:50:56;-6.10;99.90
5705;DHT22;2877;48.238;11.160;2023-02-07T06:53:22;-6.10;99.90
5705;DHT22;2877;48.238;11.160;2023-02-07T06:55:48;-6.10;99.90
5705;DHT22;2877;48.238;11.160;2023-02-07T06:58:14;-6.10;99.90
5705;DHT22;2877;48.238;11.160;2023-02-07T07:00:39;-6.10;99.90
5705;DHT22;2877;48.238;11.160;2023-02-07T07:03:05;-6.10;99.90
5705;DHT22;2877;48.238;11.160;2023-02-07T07:05:31;-6.10;99.90
5705;DHT22;2877;48.238;11.160;2023-02-07T07:07:57;-6.00;99.90
5705;DHT22;2877;48.238;11.160;2023-02-07T07:10:22;-6.00;99.90
5705;DHT22;2877;48.238;11.160;2023-02-07T07:12:48;-6.00;99.90
5705;DHT22;2877;48.238;11.160;2023-02-07T07:15:14;-5.90;99.90
5705;DHT22;2877;48.238;11.160;2023-02-07T07:17:40;-5.90;99.90
5705;DHT22;2877;48.238;11.160;2023-02-07T07:20:06;-5.90;99.90
5705;DHT22;2877;48.238;11.160;2023-02-07T07:22:33;-5.90;99.90
5705;DHT22;2877;48.238;11.160;2023-02-07T07:24:59;-5.80;99.90
5705;DHT22;2877;48.238;11.160;2023-02-07T07:27:24;-5.80;99.90
5705;DHT22;2877;48.238;11.160;2023-02-07T07:29:50;-5.80;99.90
5705;DHT22;2877;48.238;11.160;2023-02-07T07:32:16;-5.80;99.90
5705;DHT22;2877;48.238;11.160;2023-02-07T07:34:41;-5.70;99.90
5705;DHT22;2877;48.238;11.160;2023-02-07T07:37:07;-5.70;99.90
5705;DHT22;2877;48.238;11.160;2023-02-07T07:39:33;-5.70;99.90
5705;DHT22;2877;48.238;11.160;2023-02-07T07:41:59;-5.60;99.90
5705;DHT22;2877;48.238;11.160;2023-02-07T07:44:24;-5.60;99.90
5705;DHT22;2877;48.238;11.160;2023-02-07T07:46:50;-5.50;99.90
5705;DHT22;2877;48.238;11.160;2023-02-07T07:49:16;-5.50;99.90
5705;DHT22;2877;48.238;11.160;2023-02-07T07:51:41;-5.40;99.90
5705;DHT22;2877;48.238;11.160;2023-02-07T07:54:07;-5.30;99.90
5705;DHT22;2877;48.238;11.160;2023-02-07T07:56:32;-5.30;99.90
5705;DHT22;2877;48.238;11.160;2023-02-07T07:59:00;-5.30;99.90
5705;DHT22;2877;48.238;11.160;2023-02-07T08:01:26;-5.30;99.90
5705;DHT22;2877;48.238;11.160;2023-02-07T08:03:51;-5.20;99.90
5705;DHT22;2877;48.238;11.160;2023-02-07T08:06:17;-5.10;99.90
5705;DHT22;2877;48.238;11.160;2023-02-07T08:08:43;-5.00;99.90
5705;DHT22;2877;48.238;11.160;2023-02-07T08:11:09;-5.00;99.90
5705;DHT22;2877;48.238;11.160;2023-02-07T08:13:35;-4.90;99.90
5705;DHT22;2877;48.238;11.160;2023-02-07T08:16:01;-4.90;99.90
5705;DHT22;2877;48.238;11.160;2023-02-07T08:18:27;-4.80;99.90
5705;DHT22;2877;48.238;11.160;2023-02-07T08:20:53;-4.70;99.90
5705;DHT22;2877;48.238;11.160;2023-02-07T08:23:19;-4.70;99.90
5705;DHT22;2877;48.238;11.160;2023-02-07T08:25:45;-4.60;99.90
5705;DHT22;2877;48.238;11.160;2023-02-07T08:28:12;-4.50;99.90
5705;DHT22;2877;48.238;11.160;2023-02-07T08:30:37;-4.40;99.90
5705;DHT22;2877;48.238;11.160;2023-02-07T08:33:03;-4.40;99.90
5705;DHT22;2877;48.238;11.160;2023-02-07T08:35:29;-4.30;99.90
5705;DHT22;2877;48.238;11.160;2023-02-07T08:37:54;-4.30;99.90
5705;DHT22;2877;48.238;11.160;2023-02-07T08:40:21;-4.10;99.90
5705;DHT22;2877;48.238;11.160;2023-02-07T08:42:46;-4.10;99.90
5705;DHT22;2877;48.238;11.160;2023-02-07T08:45:12;-4.00;99.90
5705;DHT22;2877;48.238;11.160;2023-02-07T08:47:38;-3.90;99.90
5705;DHT22;2877;48.238;11.160;2023-02-07T08:50:05;-3.90;99.90
5705;DHT22;2877;48.238;11.160;2023-02-07T08:52:31;-3.80;99.90
5705;DHT22;2877;48.238;11.160;2023-02-07T08:54:56;-3.80;99.90
5705;DHT22;2877;48.238;11.160;2023-02-07T08:57:22;-3.70;99.90
5705;DHT22;2877;48.238;11.160;2023-02-07T08:59:50;-3.80;99.90
5705;DHT22;2877;48.238;11.160;2023-02-07T09:02:16;-3.70;99.90
5705;DHT22;2877;48.238;11.160;2023-02-07T09:04:41;-3.60;99.90
5705;DHT22;2877;48.238;11.160;2023-02-07T09:07:11;-3.50;99.90
5705;DHT22;2877;48.238;11.160;2023-02-07T09:09:36;-3.50;99.90
5705;DHT22;2877;48.238;11.160;2023-02-07T09:12:02;-3.40;99.90
5705;DHT22;2877;48.238;11.160;2023-02-07T09:14:28;-3.40;99.90
5705;DHT22;2877;48.238;11.160;2023-02-07T09:16:54;-3.30;99.90
5705;DHT22;2877;48.238;11.160;2023-02-07T09:19:19;-3.20;99.90
5705;DHT22;2877;48.238;11.160;2023-02-07T09:21:45;-3.10;99.90
5705;DHT22;2877;48.238;11.160;2023-02-07T09:24:10;-3.10;99.90
5705;DHT22;2877;48.238;11.160;2023-02-07T09:26:36;-3.00;99.90
5705;DHT22;2877;48.238;11.160;2023-02-07T09:29:04;-2.90;99.90
5705;DHT22;2877;48.238;11.160;2023-02-07T09:31:30;-2.90;99.90
5705;DHT22;2877;48.238;11.160;2023-02-07T09:33:56;-3.00;99.90
5705;DHT22;2877;48.238;11.160;2023-02-07T09:36:24;-2.90;99.90
5705;DHT22;2877;48.238;11.160;2023-02-07T09:38:51;-2.80;99.90
5705;DHT22;2877;48.238;11.160;2023-02-07T09:44:41;-2.60;99.90
5705;DHT22;2877;48.238;11.160;2023-02-07T09:47:12;-2.50;99.90
5705;DHT22;2877;48.238;11.160;2023-02-07T09:52:25;-2.40;99.90
5705;DHT22;2877;48.238;11.160;2023-02-07T09:54:54;-2.30;99.90
5705;DHT22;2877;48.238;11.160;2023-02-07T09:57:34;-2.30;99.90
5705;DHT22;2877;48.238;11.160;2023-02-07T10:00:22;-2.30;99.90
5705;DHT22;2877;48.238;11.160;2023-02-07T10:03:04;-2.20;99.90
5705;DHT22;2877;48.238;11.160;2023-02-07T10:05:43;-2.20;99.90
5705;DHT22;2877;48.238;11.160;2023-02-07T10:08:15;-2.20;99.90
5705;DHT22;2877;48.238;11.160;2023-02-07T10:16:43;-1.90;99.90
5705;DHT22;2877;48.238;11.160;2023-02-07T10:19:18;-1.80;99.90
5705;DHT22;2877;48.238;11.160;2023-02-07T10:22:25;-1.70;99.90
5705;DHT22;2877;48.238;11.160;2023-02-07T10:27:31;-1.60;99.90
5705;DHT22;2877;48.238;11.160;2023-02-07T10:32:44;-1.40;99.90
5705;DHT22;2877;48.238;11.160;2023-02-07T10:35:25;-1.30;99.90
5705;DHT22;2877;48.238;11.160;2023-02-07T10:37:54;-1.30;99.90
5705;DHT22;2877;48.238;11.160;2023-02-07T10:40:25;-1.30;99.90
5705;DHT22;2877;48.238;11.160;2023-02-07T10:43:04;-1.20;99.90
5705;DHT22;2877;48.238;11.160;2023-02-07T10:45:31;-1.10;99.90
5705;DHT22;2877;48.238;11.160;2023-02-07T10:47:57;-1.10;99.90
5705;DHT22;2877;48.238;11.160;2023-02-07T10:50:26;-1.10;99.90
5705;DHT22;2877;48.238;11.160;2023-02-07T10:52:54;-1.00;99.90
5705;DHT22;2877;48.238;11.160;2023-02-07T10:55:45;-1.00;99.90
5705;DHT22;2877;48.238;11.160;2023-02-07T10:58:17;-0.90;99.90
5705;DHT22;2877;48.238;11.160;2023-02-07T11:00:48;-0.90;99.90
5705;DHT22;2877;48.238;11.160;2023-02-07T11:03:18;-0.80;99.90
5705;DHT22;2877;48.238;11.160;2023-02-07T11:06:02;-0.70;99.90
5705;DHT22;2877;48.238;11.160;2023-02-07T11:08:31;-0.70;99.90
5705;DHT22;2877;48.238;11.160;2023-02-07T11:13:47;-0.60;99.90
5705;DHT22;2877;48.238;11.160;2023-02-07T11:16:15;-0.50;99.90
5705;DHT22;2877;48.238;11.160;2023-02-07T11:18:46;-0.50;99.90
5705;DHT22;2877;48.238;11.160;2023-02-07T11:29:19;-0.40;99.90
5705;DHT22;2877;48.238;11.160;2023-02-07T11:31:47;-0.40;99.90
5705;DHT22;2877;48.238;11.160;2023-02-07T11:34:27;-0.30;99.90
5705;DHT22;2877;48.238;11.160;2023-02-07T11:36:54;-0.30;99.90
5705;DHT22;2877;48.238;11.160;2023-02-07T11:39:32;-0.20;99.90
5705;DHT22;2877;48.238;11.160;2023-02-07T11:41:59;-0.20;99.90
5705;DHT22;2877;48.238;11.160;2023-02-07T11:44:27;-0.10;99.90
5705;DHT22;2877;48.238;11.160;2023-02-07T11:46:54;-0.10;99.90
5705;DHT22;2877;48.238;11.160;2023-02-07T11:49:29;-0.10;99.90
5705;DHT22;2877;48.238;11.160;2023-02-07T11:52:00;0.00;99.90
5705;DHT22;2877;48.238;11.160;2023-02-07T11:54:28;0.00;99.90
5705;DHT22;2877;48.238;11.160;2023-02-07T11:57:26;0.00;99.90
5705;DHT22;2877;48.238;11.160;2023-02-07T12:00:19;0.10;99.90
5705;DHT22;2877;48.238;11.160;2023-02-07T12:03:16;0.20;99.90
5705;DHT22;2877;48.238;11.160;2023-02-07T12:05:45;0.30;99.90
5705;DHT22;2877;48.238;11.160;2023-02-07T12:08:18;0.30;99.90
5705;DHT22;2877;48.238;11.160;2023-02-07T12:10:48;0.40;99.90
5705;DHT22;2877;48.238;11.160;2023-02-07T12:13:20;0.50;99.90
5705;DHT22;2877;48.238;11.160;2023-02-07T12:15:51;0.50;99.90
5705;DHT22;2877;48.238;11.160;2023-02-07T12:18:27;0.50;99.90
5705;DHT22;2877;48.238;11.160;2023-02-07T12:21:27;0.60;99.90
5705;DHT22;2877;48.238;11.160;2023-02-07T12:24:16;0.70;99.90
5705;DHT22;2877;48.238;11.160;2023-02-07T12:26:57;0.80;99.90
5705;DHT22;2877;48.238;11.160;2023-02-07T12:32:28;0.80;99.90
5705;DHT22;2877;48.238;11.160;2023-02-07T12:40:18;0.90;99.90
5705;DHT22;2877;48.238;11.160;2023-02-07T12:42:52;1.00;99.90
5705;DHT22;2877;48.238;11.160;2023-02-07T12:45:33;1.00;99.50
5705;DHT22;2877;48.238;11.160;2023-02-07T13:01:38;1.00;95.80
5705;DHT22;2877;48.238;11.160;2023-02-07T13:04:31;1.00;94.00
5705;DHT22;2877;48.238;11.160;2023-02-07T13:12:25;1.10;93.30
5705;DHT22;2877;48.238;11.160;2023-02-07T13:20:35;1.00;93.40
5705;DHT22;2877;48.238;11.160;2023-02-07T13:23:09;1.00;93.70
5705;DHT22;2877;48.238;11.160;2023-02-07T13:25:40;0.90;93.50
5705;DHT22;2877;48.238;11.160;2023-02-07T13:30:44;0.90;91.20
5705;DHT22;2877;48.238;11.160;2023-02-07T13:33:32;0.90;91.60
5705;DHT22;2877;48.238;11.160;2023-02-07T13:36:11;0.90;91.70
5705;DHT22;2877;48.238;11.160;2023-02-07T13:39:00;0.80;91.90
5705;DHT22;2877;48.238;11.160;2023-02-07T13:41:46;0.80;91.00
5705;DHT22;2877;48.238;11.160;2023-02-07T13:50:15;0.80;90.70
5705;DHT22;2877;48.238;11.160;2023-02-07T13:53:23;0.80;91.40
5705;DHT22;2877;48.238;11.160;2023-02-07T13:55:50;0.80;90.10
5705;DHT22;2877;48.238;11.160;2023-02-07T14:01:29;0.80;90.60
5705;DHT22;2877;48.238;11.160;2023-02-07T14:04:07;0.90;89.80
5705;DHT22;2877;48.238;11.160;2023-02-07T14:06:38;0.90;88.60
5705;DHT22;2877;48.238;11.160;2023-02-07T14:09:15;0.90;88.20
5705;DHT22;2877;48.238;11.160;2023-02-07T14:11:47;0.80;90.10
5705;DHT22;2877;48.238;11.160;2023-02-07T14:14:34;0.80;89.20
5705;DHT22;2877;48.238;11.160;2023-02-07T14:17:05;0.80;90.30
5705;DHT22;2877;48.238;11.160;2023-02-07T14:27:36;0.80;91.10
5705;DHT22;2877;48.238;11.160;2023-02-07T14:30:14;0.80;90.30
5705;DHT22;2877;48.238;11.160;2023-02-07T14:32:44;0.70;90.30
5705;DHT22;2877;48.238;11.160;2023-02-07T14:35:33;0.70;91.20
5705;DHT22;2877;48.238;11.160;2023-02-07T14:43:17;0.60;91.80
5705;DHT22;2877;48.238;11.160;2023-02-07T14:51:00;0.60;91.40
5705;DHT22;2877;48.238;11.160;2023-02-07T14:53:28;0.60;89.80
5705;DHT22;2877;48.238;11.160;2023-02-07T14:56:00;0.50;90.40
5705;DHT22;2877;48.238;11.160;2023-02-07T14:58:40;0.50;90.80
5705;DHT22;2877;48.238;11.160;2023-02-07T15:01:16;0.50;88.60
5705;DHT22;2877;48.238;11.160;2023-02-07T15:03:42;0.50;88.80
5705;DHT22;2877;48.238;11.160;2023-02-07T15:06:19;0.40;87.40
5705;DHT22;2877;48.238;11.160;2023-02-07T15:09:00;0.40;89.40
5705;DHT22;2877;48.238;11.160;2023-02-07T15:11:27;0.40;88.50
5705;DHT22;2877;48.238;11.160;2023-02-07T15:13:56;0.30;90.40
5705;DHT22;2877;48.238;11.160;2023-02-07T15:16:26;0.30;90.30
5705;DHT22;2877;48.238;11.160;2023-02-07T15:18:56;0.40;90.20
5705;DHT22;2877;48.238;11.160;2023-02-07T15:21:36;0.30;87.60
5705;DHT22;2877;48.238;11.160;2023-02-07T15:24:06;0.20;88.40
5705;DHT22;2877;48.238;11.160;2023-02-07T15:26:34;0.20;88.30
5705;DHT22;2877;48.238;11.160;2023-02-07T15:29:03;0.20;88.90
5705;DHT22;2877;48.238;11.160;2023-02-07T15:31:28;0.20;89.50
5705;DHT22;2877;48.238;11.160;2023-02-07T15:33:57;0.10;90.50
5705;DHT22;2877;48.238;11.160;2023-02-07T15:36:31;0.10;90.80
5705;DHT22;2877;48.238;11.160;2023-02-07T15:38:58;0.10;91.50
5705;DHT22;2877;48.238;11.160;2023-02-07T15:41:25;0.00;91.60
5705;DHT22;2877;48.238;11.160;2023-02-07T15:44:00;0.00;91.40
5705;DHT22;2877;48.238;11.160;2023-02-07T15:46:45;0.00;91.30
5705;DHT22;2877;48.238;11.160;2023-02-07T15:51:54;-0.10;90.80
5705;DHT22;2877;48.238;11.160;2023-02-07T15:54:22;-0.10;91.10
5705;DHT22;2877;48.238;11.160;2023-02-07T15:56:49;-0.20;91.90
5705;DHT22;2877;48.238;11.160;2023-02-07T15:59:18;-0.30;92.50
5705;DHT22;2877;48.238;11.160;2023-02-07T16:01:52;-0.30;92.70
5705;DHT22;2877;48.238;11.160;2023-02-07T16:04:18;-0.40;92.90
5705;DHT22;2877;48.238;11.160;2023-02-07T16:06:59;-0.50;93.40
5705;DHT22;2877;48.238;11.160;2023-02-07T16:15:26;-0.70;94.30
5705;DHT22;2877;48.238;11.160;2023-02-07T16:17:52;-0.80;94.10
5705;DHT22;2877;48.238;11.160;2023-02-07T16:20:18;-0.90;94.40
5705;DHT22;2877;48.238;11.160;2023-02-07T16:22:44;-0.90;94.70
5705;DHT22;2877;48.238;11.160;2023-02-07T16:25:19;-1.00;95.00
5705;DHT22;2877;48.238;11.160;2023-02-07T16:27:48;-1.10;95.20
5705;DHT22;2877;48.238;11.160;2023-02-07T16:30:18;-1.20;95.70
5705;DHT22;2877;48.238;11.160;2023-02-07T16:32:44;-1.30;95.80
5705;DHT22;2877;48.238;11.160;2023-02-07T16:35:22;-1.30;96.40
5705;DHT22;2877;48.238;11.160;2023-02-07T16:37:47;-1.40;96.80
5705;DHT22;2877;48.238;11.160;2023-02-07T16:40:13;-1.60;98.20
5705;DHT22;2877;48.238;11.160;2023-02-07T16:42:40;-1.70;98.70
5705;DHT22;2877;48.238;11.160;2023-02-07T16:45:14;-1.80;99.20
5705;DHT22;2877;48.238;11.160;2023-02-07T16:47:40;-1.70;99.80
5705;DHT22;2877;48.238;11.160;2023-02-07T16:50:12;-1.80;99.90
5705;DHT22;2877;48.238;11.160;2023-02-07T16:52:38;-1.90;99.90
5705;DHT22;2877;48.238;11.160;2023-02-07T16:55:03;-2.00;99.90
5705;DHT22;2877;48.238;11.160;2023-02-07T16:57:29;-2.10;99.90
5705;DHT22;2877;48.238;11.160;2023-02-07T16:59:55;-2.10;99.90
5705;DHT22;2877;48.238;11.160;2023-02-07T17:02:20;-2.00;99.90
5705;DHT22;2877;48.238;11.160;2023-02-07T17:04:46;-1.90;99.90
5705;DHT22;2877;48.238;11.160;2023-02-07T17:07:11;-1.90;99.90
5705;DHT22;2877;48.238;11.160;2023-02-07T17:09:37;-1.90;99.90
5705;DHT22;2877;48.238;11.160;2023-02-07T17:12:02;-1.90;99.90
5705;DHT22;2877;48.238;11.160;2023-02-07T17:14:28;-1.90;99.90
5705;DHT22;2877;48.238;11.160;2023-02-07T17:16:53;-2.00;99.90
5705;DHT22;2877;48.238;11.160;2023-02-07T17:19:21;-2.10;99.90
5705;DHT22;2877;48.238;11.160;2023-02-07T17:21:50;-2.20;99.90
5705;DHT22;2877;48.238;11.160;2023-02-07T17:24:16;-2.20;99.90
5705;DHT22;2877;48.238;11.160;2023-02-07T17:26:45;-2.30;99.90
5705;DHT22;2877;48.238;11.160;2023-02-07T17:29:13;-2.20;99.90
5705;DHT22;2877;48.238;11.160;2023-02-07T17:31:40;-2.30;99.90
5705;DHT22;2877;48.238;11.160;2023-02-07T17:34:06;-2.30;99.90
5705;DHT22;2877;48.238;11.160;2023-02-07T17:36:32;-2.40;99.90
5705;DHT22;2877;48.238;11.160;2023-02-07T17:38:58;-2.40;99.90
5705;DHT22;2877;48.238;11.160;2023-02-07T17:41:24;-2.50;99.90
5705;DHT22;2877;48.238;11.160;2023-02-07T17:43:50;-2.50;99.90
5705;DHT22;2877;48.238;11.160;2023-02-07T17:46:18;-2.50;99.90
5705;DHT22;2877;48.238;11.160;2023-02-07T17:48:45;-2.60;99.90
5705;DHT22;2877;48.238;11.160;2023-02-07T17:51:15;-2.70;99.90
5705;DHT22;2877;48.238;11.160;2023-02-07T17:53:41;-2.70;99.90
5705;DHT22;2877;48.238;11.160;2023-02-07T17:56:08;-2.60;99.90
5705;DHT22;2877;48.238;11.160;2023-02-07T17:58:36;-2.60;99.90
5705;DHT22;2877;48.238;11.160;2023-02-07T18:01:03;-2.70;99.90
5705;DHT22;2877;48.238;11.160;2023-02-07T18:03:29;-2.70;99.90
5705;DHT22;2877;48.238;11.160;2023-02-07T18:05:55;-2.80;99.90
5705;DHT22;2877;48.238;11.160;2023-02-07T18:08:22;-2.80;99.90
5705;DHT22;2877;48.238;11.160;2023-02-07T18:10:47;-2.80;99.90
5705;DHT22;2877;48.238;11.160;2023-02-07T18:13:13;-2.80;99.90
5705;DHT22;2877;48.238;11.160;2023-02-07T18:15:38;-2.70;99.90
5705;DHT22;2877;48.238;11.160;2023-02-07T18:18:04;-2.70;99.90